Bordulac, North Dakota
Current Conditions -  °F | °C
As of 12:55 PM on Friday 21 Nov 2014 (Local Time) from K46D Reporting Station
Clear Clear  
Wind Chill: 26°   Ceiling: Unl
Heat Index: 36°   Visibility: 10mi
Dew Point: 25°   Wind: 15mph
Humidity: 65%   Direction: 240°WSW
Pressure: 29.67"   Gusts: 21mph
Location:  47.4573°N, 99.0752°W
Report Text: K46D 211855Z AUTO 24013G18KT 10SM CLR 02/M04 A2967 RMK AO2
Loading
Personal Weather Stations






























Interactive Weather Map New forecast layout! Learn more

10-Day Weather Forecast

Advertisements
Track Severe Weather on mobile